Time;durP1;ratioP1;P1;durP2;ratioP2;P2;SDS_P1;SDS_P2;PMS_P1;PMS_P2;Temp;Humidity;BMP_temperature;BMP_pressure;BME280_temperature;BME280_humidity;BME280_pressure;Samples;Min_cycle;Max_cycle;Signal;HPM_P1;HPM_P2
2021/05/13 00:00:24;;;;;;;9.13;7.53;;;11.70;78.40;;;;;;5037083;28;20037;-65
2021/05/13 00:02:56;;;;;;;8.82;6.65;;;11.60;78.50;;;;;;5036763;28;20087;-65
2021/05/13 00:05:25;;;;;;;10.55;7.85;;;11.60;78.50;;;;;;5039872;28;20026;-65
2021/05/13 00:07:57;;;;;;;14.43;7.55;;;11.60;78.40;;;;;;5038622;28;20033;-65
2021/05/13 00:10:26;;;;;;;8.93;6.88;;;11.70;78.60;;;;;;5035531;28;21711;-66
2021/05/13 00:13:05;;;;;;;7.75;6.95;;;11.60;78.30;;;;;;5040732;28;20033;-65
2021/05/13 00:15:37;;;;;;;8.45;7.45;;;11.60;78.20;;;;;;5039059;28;20067;-65
2021/05/13 00:18:06;;;;;;;7.70;6.90;;;11.70;78.00;;;;;;5039111;28;20069;-65
2021/05/13 00:20:36;;;;;;;7.63;6.35;;;11.60;77.90;;;;;;5038094;28;20043;-65
2021/05/13 00:23:02;;;;;;;7.78;7.03;;;11.60;77.90;;;;;;5041865;28;20509;-65
2021/05/13 00:25:33;;;;;;;8.38;7.15;;;11.60;77.80;;;;;;5040345;28;20088;-65
2021/05/13 00:28:03;;;;;;;10.70;8.05;;;11.50;77.90;;;;;;5046450;28;20037;-65
2021/05/13 00:30:32;;;;;;;8.55;7.72;;;11.50;78.00;;;;;;5036189;28;20034;-65
2021/05/13 00:33:02;;;;;;;9.88;7.85;;;11.50;78.10;;;;;;5035242;28;20105;-65
2021/05/13 00:35:35;;;;;;;8.10;7.28;;;11.50;78.20;;;;;;5037992;28;20120;-66
2021/05/13 00:38:05;;;;;;;10.18;7.93;;;11.50;78.30;;;;;;5037419;28;20025;-65
2021/05/13 00:40:33;;;;;;;8.38;7.57;;;11.50;78.40;;;;;;5037620;28;20034;-65
2021/05/13 00:43:06;;;;;;;9.68;7.60;;;11.50;78.40;;;;;;5037561;28;20060;-65
2021/05/13 00:45:34;;;;;;;9.13;8.07;;;11.50;78.40;;;;;;5053639;28;20025;-65
2021/05/13 00:48:06;;;;;;;8.60;7.72;;;11.50;78.40;;;;;;5038681;28;20037;-65
2021/05/13 00:50:37;;;;;;;10.10;7.75;;;11.50;78.60;;;;;;5038867;28;20037;-65
2021/05/13 00:53:09;;;;;;;8.43;7.47;;;11.50;78.60;;;;;;5055567;28;20060;-65
2021/05/13 00:55:36;;;;;;;8.40;7.53;;;11.50;78.60;;;;;;5041852;28;20100;-65
2021/05/13 00:58:07;;;;;;;9.00;7.95;;;11.50;78.50;;;;;;5040700;28;20492;-65
2021/05/13 01:03:08;;;;;;;9.27;8.38;;;11.50;78.60;;;;;;5040712;28;20041;-65
2021/05/13 01:05:40;;;;;;;8.52;7.57;;;11.60;78.70;;;;;;5042271;28;20033;-65
2021/05/13 01:08:06;;;;;;;9.25;8.00;;;11.60;78.60;;;;;;5042745;28;20022;-65
2021/05/13 01:10:35;;;;;;;8.63;7.78;;;11.60;78.60;;;;;;5035922;28;20030;-65
2021/05/13 01:13:14;;;;;;;8.85;7.80;;;11.60;78.70;;;;;;5038335;28;20029;-65
2021/05/13 01:15:45;;;;;;;8.00;6.97;;;11.60;78.90;;;;;;5039912;28;20052;-65
2021/05/13 01:18:24;;;;;;;8.38;7.47;;;11.60;78.70;;;;;;5038664;28;20041;-65
2021/05/13 01:20:50;;;;;;;8.02;7.22;;;11.60;78.80;;;;;;5041004;28;20029;-65
2021/05/13 01:23:21;;;;;;;8.45;7.55;;;11.60;79.40;;;;;;5048705;28;20369;-65
2021/05/13 01:25:53;;;;;;;7.88;7.15;;;11.60;78.70;;;;;;5039873;28;20029;-65
2021/05/13 01:28:30;;;;;;;8.18;7.38;;;11.60;78.90;;;;;;5041613;28;20033;-65
2021/05/13 01:31:03;;;;;;;8.27;7.47;;;11.50;78.90;;;;;;5039367;28;20463;-64
2021/05/13 01:33:33;;;;;;;8.88;7.68;;;11.50;78.90;;;;;;5038570;28;20053;-65
2021/05/13 01:36:03;;;;;;;8.68;7.72;;;11.60;78.80;;;;;;5038739;28;20049;-65
2021/05/13 01:38:31;;;;;;;12.57;8.25;;;11.50;78.70;;;;;;5037840;28;20033;-65
2021/05/13 01:41:01;;;;;;;8.52;7.65;;;11.50;78.60;;;;;;5040666;28;20131;-65
2021/05/13 01:43:31;;;;;;;9.35;7.75;;;11.50;78.60;;;;;;5039575;28;20037;-65
2021/05/13 01:46:04;;;;;;;8.60;7.70;;;11.50;78.70;;;;;;5041368;28;20037;-65
2021/05/13 01:48:36;;;;;;;9.77;7.68;;;11.50;78.90;;;;;;5040533;28;20038;-65
2021/05/13 01:51:06;;;;;;;8.73;7.35;;;11.50;78.90;;;;;;5041270;28;20030;-65
2021/05/13 01:53:36;;;;;;;9.55;7.68;;;11.50;78.80;;;;;;5039406;28;20049;-65
2021/05/13 01:56:07;;;;;;;8.98;8.07;;;11.50;78.90;;;;;;5039655;28;20026;-65
2021/05/13 01:58:38;;;;;;;9.18;8.27;;;11.40;78.90;;;;;;5038391;28;20124;-65
2021/05/13 02:01:14;;;;;;;9.07;8.10;;;11.40;78.70;;;;;;5037992;28;20041;-65
2021/05/13 02:03:43;;;;;;;8.23;7.43;;;11.40;78.70;;;;;;5040027;28;20246;-65
2021/05/13 02:06:12;;;;;;;8.43;7.32;;;11.40;78.70;;;;;;5040222;28;20120;-65
2021/05/13 02:08:42;;;;;;;8.70;7.80;;;11.40;78.70;;;;;;5039391;28;20037;-65
2021/05/13 02:11:10;;;;;;;8.38;7.57;;;11.40;78.80;;;;;;5035624;28;20042;-65
2021/05/13 02:13:37;;;;;;;8.60;7.80;;;11.40;78.70;;;;;;5037538;28;20029;-66
2021/05/13 02:16:06;;;;;;;8.63;7.80;;;11.40;78.80;;;;;;5035956;28;20041;-65
2021/05/13 02:18:38;;;;;;;8.18;7.40;;;11.40;78.80;;;;;;5043664;28;20123;-66
2021/05/13 02:21:04;;;;;;;8.80;7.90;;;11.40;78.80;;;;;;5037612;28;20041;-65
2021/05/13 02:23:35;;;;;;;8.57;7.72;;;11.40;78.80;;;;;;5042384;28;20028;-66
2021/05/13 02:26:05;;;;;;;8.95;7.70;;;11.40;78.80;;;;;;5041614;28;20034;-65
2021/05/13 02:28:38;;;;;;;9.32;7.50;;;11.40;78.60;;;;;;5039068;28;20707;-65
2021/05/13 02:31:06;;;;;;;8.93;7.78;;;11.40;78.70;;;;;;5043038;28;20041;-65
2021/05/13 02:33:33;;;;;;;7.93;7.13;;;11.40;78.80;;;;;;5038309;28;20109;-65
2021/05/13 02:36:02;;;;;;;8.30;7.40;;;11.40;78.80;;;;;;5040333;28;20072;-66
2021/05/13 02:38:32;;;;;;;8.73;7.93;;;11.40;78.90;;;;;;5038275;28;20040;-65
2021/05/13 02:41:00;;;;;;;9.00;8.10;;;11.40;78.70;;;;;;5037318;28;20079;-65
2021/05/13 02:43:28;;;;;;;8.82;7.93;;;11.40;78.70;;;;;;5045862;28;20931;-65
2021/05/13 02:45:54;;;;;;;8.68;7.65;;;11.40;78.70;;;;;;5039415;28;20025;-65
2021/05/13 02:48:25;;;;;;;9.07;7.57;;;11.40;78.70;;;;;;5039596;28;20183;-66
2021/05/13 02:50:57;;;;;;;9.35;7.65;;;11.40;78.70;;;;;;5039331;28;20033;-66
2021/05/13 02:53:28;;;;;;;11.13;8.13;;;11.40;78.70;;;;;;5038883;28;20437;-65
2021/05/13 02:55:56;;;;;;;9.55;8.55;;;11.40;78.60;;;;;;5039985;28;20527;-65
2021/05/13 02:58:28;;;;;;;8.70;7.80;;;11.40;78.80;;;;;;5037887;28;20037;-64
2021/05/13 03:01:06;;;;;;;11.10;8.07;;;11.40;78.80;;;;;;5038974;28;20025;-65
2021/05/13 03:03:34;;;;;;;11.20;8.20;;;11.40;78.70;;;;;;5040404;28;20036;-65
2021/05/13 03:06:02;;;;;;;9.07;7.15;;;11.40;78.60;;;;;;5039905;28;20045;-65
2021/05/13 03:08:30;;;;;;;8.80;7.20;;;11.40;78.50;;;;;;5038666;28;20124;-65
2021/05/13 03:11:03;;;;;;;8.15;7.35;;;11.40;78.60;;;;;;5039383;28;20033;-66
2021/05/13 03:13:31;;;;;;;13.88;8.35;;;11.30;78.70;;;;;;5036407;28;20030;-66
2021/05/13 03:15:59;;;;;;;15.35;8.18;;;11.30;78.70;;;;;;5038780;28;20041;-66
2021/05/13 03:18:29;;;;;;;9.38;8.05;;;11.30;79.80;;;;;;5039447;28;20037;-66
2021/05/13 03:21:20;;;;;;;10.05;8.10;;;11.30;79.10;;;;;;5038821;28;20566;-65
2021/05/13 03:26:12;;;;;;;9.73;8.18;;;11.30;79.40;;;;;;5039173;28;20097;-65
2021/05/13 03:28:42;;;;;;;8.80;7.40;;;11.30;79.60;;;;;;5045909;28;20096;-65
2021/05/13 03:31:12;;;;;;;11.57;7.88;;;11.30;79.60;;;;;;5038222;28;20068;-65
2021/05/13 03:33:40;;;;;;;9.00;7.80;;;11.30;79.80;;;;;;5039237;28;20638;-65
2021/05/13 03:36:08;;;;;;;10.98;8.40;;;11.30;79.60;;;;;;5038219;28;20037;-65
2021/05/13 03:38:41;;;;;;;10.27;8.40;;;11.30;79.50;;;;;;5035408;28;20029;-65
2021/05/13 03:41:13;;;;;;;10.13;8.73;;;11.30;79.60;;;;;;5038007;28;20049;-65
2021/05/13 03:43:44;;;;;;;10.63;8.52;;;11.40;79.70;;;;;;5039290;28;20369;-65
2021/05/13 03:46:14;;;;;;;12.63;8.25;;;11.40;79.60;;;;;;5039885;28;20086;-66
2021/05/13 03:48:44;;;;;;;9.43;8.27;;;11.40;79.40;;;;;;5037672;28;20030;-65
2021/05/13 03:51:14;;;;;;;10.10;8.35;;;11.40;79.40;;;;;;5038134;28;20069;-65
2021/05/13 03:53:40;;;;;;;9.70;8.20;;;11.40;79.30;;;;;;5039411;28;20029;-65
2021/05/13 03:56:12;;;;;;;9.88;8.68;;;11.40;79.30;;;;;;5040721;28;20048;-65
2021/05/13 03:59:02;;;;;;;9.88;8.13;;;11.50;79.40;;;;;;5039391;28;20489;-65
2021/05/13 04:01:49;;;;;;;10.05;7.47;;;11.40;79.30;;;;;;5038549;28;20048;-65
2021/05/13 04:04:15;;;;;;;9.60;8.23;;;11.40;79.30;;;;;;5040057;28;20030;-66
2021/05/13 04:06:45;;;;;;;11.20;8.40;;;11.40;79.30;;;;;;5040473;28;20127;-65
2021/05/13 04:09:13;;;;;;;9.20;8.23;;;11.40;79.40;;;;;;5039441;28;20033;-66
2021/05/13 04:11:42;;;;;;;8.63;7.72;;;11.40;79.40;;;;;;5034883;28;20216;-65
2021/05/13 04:14:13;;;;;;;9.57;7.93;;;11.40;79.60;;;;;;5039694;28;20049;-66
2021/05/13 04:16:41;;;;;;;9.48;7.82;;;11.40;79.70;;;;;;5035784;28;20416;-65
2021/05/13 04:19:10;;;;;;;8.98;8.02;;;11.40;79.70;;;;;;5039763;28;20128;-65
2021/05/13 04:21:38;;;;;;;9.88;8.30;;;11.40;79.70;;;;;;5034837;28;20033;-65
2021/05/13 04:24:04;;;;;;;8.85;7.95;;;11.50;79.80;;;;;;5037060;28;20514;-65
2021/05/13 04:26:32;;;;;;;8.52;7.63;;;11.50;79.50;;;;;;5038757;28;20455;-65
2021/05/13 04:29:02;;;;;;;8.93;8.02;;;11.50;79.40;;;;;;5041812;28;20400;-65
2021/05/13 04:31:32;;;;;;;8.57;7.70;;;11.40;79.40;;;;;;5042306;28;20029;-66
2021/05/13 04:34:02;;;;;;;10.20;7.47;;;11.50;79.60;;;;;;5042709;28;20026;-65
2021/05/13 04:36:31;;;;;;;8.80;7.90;;;11.50;79.60;;;;;;5039807;28;20045;-65
2021/05/13 04:38:57;;;;;;;9.63;7.97;;;11.50;79.60;;;;;;5041476;28;20404;-66
2021/05/13 04:41:28;;;;;;;15.55;12.73;;;11.50;79.70;;;;;;5041084;28;20107;-66
2021/05/13 04:43:58;;;;;;;9.10;8.07;;;11.50;79.80;;;;;;5042713;28;20029;-66
2021/05/13 04:46:29;;;;;;;11.40;9.00;;;11.50;79.80;;;;;;5039422;28;20033;-66
2021/05/13 04:49:16;;;;;;;7.82;6.90;;;11.60;79.70;;;;;;5040458;28;20030;-66
2021/05/13 04:51:45;;;;;;;8.20;7.15;;;11.60;79.60;;;;;;5041784;28;20580;-64
2021/05/13 04:54:15;;;;;;;8.00;7.07;;;11.60;79.40;;;;;;5040818;28;20498;-66
2021/05/13 04:56:48;;;;;;;9.10;6.78;;;11.60;79.70;;;;;;5041384;28;20033;-65
2021/05/13 04:59:21;;;;;;;7.93;6.72;;;11.60;79.60;;;;;;5038940;28;20057;-66
2021/05/13 05:01:49;;;;;;;7.47;6.68;;;11.60;79.60;;;;;;5040132;28;20113;-66
2021/05/13 05:04:17;;;;;;;7.93;6.43;;;11.60;79.70;;;;;;5040356;28;20029;-67
2021/05/13 05:06:47;;;;;;;7.22;6.53;;;11.70;79.90;;;;;;5039902;28;20064;-65
2021/05/13 05:09:15;;;;;;;7.15;6.47;;;11.70;79.80;;;;;;5039859;28;20041;-65
2021/05/13 05:11:48;;;;;;;8.30;6.95;;;11.70;79.70;;;;;;5037819;28;20148;-64
2021/05/13 05:14:17;;;;;;;9.02;7.68;;;11.70;79.60;;;;;;5040892;28;20123;-66
2021/05/13 05:16:45;;;;;;;8.13;7.32;;;11.70;79.50;;;;;;5040412;28;20476;-65
2021/05/13 05:19:13;;;;;;;7.55;6.72;;;11.70;79.60;;;;;;5042844;28;20071;-66
2021/05/13 05:21:41;;;;;;;7.90;7.20;;;11.70;79.80;;;;;;5029446;28;20443;-66
2021/05/13 05:24:07;;;;;;;8.40;7.50;;;11.70;79.90;;;;;;5029694;28;20041;-66
2021/05/13 05:26:36;;;;;;;7.68;6.97;;;11.80;80.00;;;;;;5023582;28;20037;-66
2021/05/13 05:29:07;;;;;;;8.30;7.45;;;11.80;80.10;;;;;;5028119;28;20544;-67
2021/05/13 05:31:37;;;;;;;8.57;7.55;;;11.80;80.00;;;;;;5025929;28;20124;-67
2021/05/13 05:34:03;;;;;;;7.97;7.13;;;11.90;80.00;;;;;;5021006;28;20057;-66
2021/05/13 05:36:31;;;;;;;9.05;7.57;;;11.90;79.80;;;;;;5023593;28;20140;-65
2021/05/13 05:39:00;;;;;;;8.50;7.68;;;11.90;79.60;;;;;;5025588;28;20052;-67
2021/05/13 05:41:31;;;;;;;8.35;7.55;;;11.90;79.60;;;;;;5025690;28;20033;-66
2021/05/13 05:44:02;;;;;;;54.03;26.58;;;11.90;79.40;;;;;;5022262;28;20352;-67
2021/05/13 05:46:30;;;;;;;37.28;19.38;;;11.90;79.60;;;;;;5030135;28;22340;-66
2021/05/13 05:48:56;;;;;;;20.23;12.77;;;11.90;79.60;;;;;;5024686;28;20045;-64
2021/05/13 05:51:22;;;;;;;15.95;9.18;;;11.80;79.80;;;;;;5025610;28;20048;-66
2021/05/13 05:53:52;;;;;;;9.50;8.50;;;11.80;79.90;;;;;;5020622;28;20033;-66
2021/05/13 05:56:23;;;;;;;9.48;8.48;;;11.80;80.10;;;;;;5024507;28;20041;-66
2021/05/13 05:58:51;;;;;;;9.57;8.13;;;11.80;80.10;;;;;;5020226;28;20037;-65
2021/05/13 06:01:21;;;;;;;9.38;8.45;;;11.80;80.30;;;;;;5017641;28;20139;-66
2021/05/13 06:03:49;;;;;;;10.50;8.75;;;11.80;80.30;;;;;;5022312;28;20108;-66
2021/05/13 06:06:19;;;;;;;10.68;9.57;;;11.80;80.60;;;;;;5021055;28;20052;-66
2021/05/13 06:08:50;;;;;;;11.65;9.20;;;11.80;80.80;;;;;;5021132;28;20400;-67
2021/05/13 06:11:15;;;;;;;9.88;8.88;;;11.80;80.80;;;;;;5025215;28;20059;-64
2021/05/13 06:13:43;;;;;;;11.25;9.32;;;11.80;81.00;;;;;;5022487;28;20551;-65
2021/05/13 06:16:14;;;;;;;11.23;9.52;;;11.90;81.00;;;;;;5021498;28;20143;-67
2021/05/13 06:18:54;;;;;;;9.77;8.15;;;11.90;80.90;;;;;;5019677;28;20042;-65
2021/05/13 06:21:23;;;;;;;10.60;9.48;;;11.90;81.00;;;;;;5023655;28;20034;-65
2021/05/13 06:23:54;;;;;;;9.93;8.90;;;11.90;80.80;;;;;;5023175;28;20038;-65
2021/05/13 06:26:34;;;;;;;11.30;8.85;;;11.90;81.00;;;;;;5022023;28;20061;-65
2021/05/13 06:29:05;;;;;;;12.02;9.38;;;11.90;81.20;;;;;;5022139;28;20543;-65
2021/05/13 06:31:34;;;;;;;9.90;8.90;;;11.90;81.00;;;;;;5018944;28;20044;-64
2021/05/13 06:34:05;;;;;;;9.68;8.65;;;11.90;81.20;;;;;;5019067;28;20792;-65
2021/05/13 06:36:30;;;;;;;12.43;8.75;;;12.00;81.30;;;;;;5021518;28;20140;-65
2021/05/13 06:39:03;;;;;;;11.25;8.55;;;12.00;81.30;;;;;;5030561;28;20048;-65
2021/05/13 06:41:31;;;;;;;8.93;8.02;;;12.00;81.50;;;;;;5033234;28;20793;-66
2021/05/13 06:43:59;;;;;;;9.50;8.32;;;12.00;81.30;;;;;;5038141;28;20429;-66
2021/05/13 06:46:29;;;;;;;10.98;8.60;;;12.10;81.30;;;;;;5038088;28;20029;-65
2021/05/13 06:48:57;;;;;;;9.25;8.35;;;12.10;81.30;;;;;;5039258;28;20037;-65
2021/05/13 06:51:25;;;;;;;13.80;8.27;;;12.10;81.40;;;;;;5036991;28;20045;-66
2021/05/13 06:53:50;;;;;;;8.45;7.50;;;12.10;81.20;;;;;;5040669;28;20151;-66
2021/05/13 06:56:21;;;;;;;9.65;7.60;;;12.20;81.00;;;;;;5036347;28;20480;-65
2021/05/13 06:58:51;;;;;;;8.60;7.70;;;12.20;80.90;;;;;;5033953;28;20037;-66
2021/05/13 07:01:19;;;;;;;9.85;7.22;;;12.20;81.00;;;;;;5034817;28;20072;-64
2021/05/13 07:03:50;;;;;;;8.93;8.07;;;12.20;81.10;;;;;;5031802;28;20060;-65
2021/05/13 07:06:16;;;;;;;9.68;7.82;;;12.10;81.20;;;;;;5038174;28;20047;-65
2021/05/13 07:08:46;;;;;;;8.73;7.78;;;12.20;81.50;;;;;;5038013;28;20037;-65
2021/05/13 07:11:12;;;;;;;7.35;6.53;;;12.20;81.40;;;;;;5037834;28;20041;-66
2021/05/13 07:13:39;;;;;;;8.02;7.03;;;12.30;81.30;;;;;;5035997;28;20116;-65
2021/05/13 07:16:12;;;;;;;7.70;6.72;;;12.30;80.70;;;;;;5041234;28;20052;-65
2021/05/13 07:18:42;;;;;;;9.07;7.05;;;12.30;80.50;;;;;;5038764;28;20434;-65
2021/05/13 07:21:10;;;;;;;7.63;6.82;;;12.40;80.80;;;;;;5034876;28;20025;-66
2021/05/13 07:23:38;;;;;;;7.75;6.97;;;12.40;80.70;;;;;;5032840;28;20033;-65
2021/05/13 07:26:06;;;;;;;8.15;6.78;;;12.40;80.60;;;;;;5035574;28;20441;-65
2021/05/13 07:28:34;;;;;;;7.80;7.00;;;12.50;81.00;;;;;;5033181;28;20034;-65
2021/05/13 07:31:04;;;;;;;7.95;7.05;;;12.50;81.00;;;;;;5032420;28;20040;-66
2021/05/13 07:33:36;;;;;;;8.35;7.18;;;12.60;81.20;;;;;;5014302;28;20511;-65
2021/05/13 07:36:10;;;;;;;7.25;6.55;;;12.60;81.00;;;;;;5024178;28;20045;-65
2021/05/13 07:38:36;;;;;;;7.15;6.38;;;12.70;80.70;;;;;;5023962;28;20505;-65
2021/05/13 07:41:06;;;;;;;8.05;7.15;;;12.70;81.00;;;;;;5026577;28;20048;-65
2021/05/13 07:43:36;;;;;;;10.70;7.63;;;12.80;81.20;;;;;;5019425;28;20037;-65
2021/05/13 07:46:04;;;;;;;10.27;8.02;;;12.90;81.00;;;;;;5022167;28;20033;-65
2021/05/13 07:48:32;;;;;;;8.93;7.68;;;13.00;81.00;;;;;;5022498;28;20061;-65
2021/05/13 07:50:58;;;;;;;8.27;7.18;;;13.10;80.90;;;;;;5026144;28;20777;-65
2021/05/13 07:53:28;;;;;;;6.85;6.18;;;13.20;80.60;;;;;;5023238;28;20041;-65
2021/05/13 07:55:58;;;;;;;7.60;6.82;;;13.20;80.30;;;;;;5021929;28;20045;-65
2021/05/13 07:58:26;;;;;;;8.70;6.65;;;13.40;80.30;;;;;;5025274;28;20041;-65
2021/05/13 08:00:55;;;;;;;7.65;6.60;;;13.40;80.00;;;;;;5028505;28;20028;-65
2021/05/13 08:03:20;;;;;;;7.55;6.80;;;13.50;79.80;;;;;;5034088;28;20029;-65
2021/05/13 08:05:53;;;;;;;7.70;6.55;;;13.60;79.60;;;;;;5033415;28;20025;-66
2021/05/13 08:08:23;;;;;;;7.70;6.88;;;13.60;79.30;;;;;;5036343;28;20529;-65
2021/05/13 08:10:51;;;;;;;6.22;5.63;;;13.70;79.10;;;;;;5042131;28;20041;-65
2021/05/13 08:13:19;;;;;;;7.47;6.78;;;13.70;78.90;;;;;;5042735;28;20043;-64
2021/05/13 08:15:52;;;;;;;7.95;6.35;;;13.80;78.60;;;;;;5047055;28;20033;-65
2021/05/13 08:18:20;;;;;;;6.50;5.78;;;13.90;78.20;;;;;;5040054;28;20033;-66
2021/05/13 08:20:45;;;;;;;6.38;5.65;;;14.00;78.00;;;;;;5043451;28;20041;-65
2021/05/13 08:23:13;;;;;;;6.13;5.18;;;14.10;77.90;;;;;;5045511;28;20484;-66
2021/05/13 08:25:42;;;;;;;6.13;5.15;;;14.10;77.50;;;;;;5044725;28;20503;-65
2021/05/13 08:28:10;;;;;;;6.25;5.65;;;14.20;78.00;;;;;;5039071;28;20128;-65
2021/05/13 08:30:35;;;;;;;7.80;6.18;;;14.30;77.00;;;;;;5040782;28;20090;-65
2021/05/13 08:33:07;;;;;;;6.70;6.00;;;14.40;77.00;;;;;;5041571;28;20037;-65
2021/05/13 08:35:37;;;;;;;6.70;5.88;;;14.50;76.80;;;;;;5044014;28;20029;-65
2021/05/13 08:38:07;;;;;;;8.52;6.20;;;14.50;76.90;;;;;;5042433;28;20042;-65
2021/05/13 08:40:37;;;;;;;7.68;6.28;;;14.60;76.90;;;;;;5040200;28;20045;-65
2021/05/13 08:43:22;;;;;;;6.75;5.88;;;14.60;77.00;;;;;;5044464;28;20038;-65
2021/05/13 08:45:55;;;;;;;6.80;5.50;;;14.70;76.50;;;;;;5043220;28;20033;-65
2021/05/13 08:48:26;;;;;;;7.75;5.80;;;14.90;76.90;;;;;;5042733;28;20033;-66
2021/05/13 08:50:55;;;;;;;8.00;6.00;;;15.00;76.50;;;;;;5044000;28;20034;-65
2021/05/13 08:53:21;;;;;;;6.40;5.80;;;15.10;76.20;;;;;;5040146;28;20034;-65
2021/05/13 08:55:47;;;;;;;7.03;5.40;;;15.20;75.80;;;;;;5039281;28;20037;-65
2021/05/13 08:58:18;;;;;;;4.80;4.22;;;15.20;75.30;;;;;;5041660;28;20627;-66
2021/05/13 09:01:03;;;;;;;4.80;4.40;;;15.30;74.60;;;;;;5040568;28;20033;-65
2021/05/13 09:03:35;;;;;;;5.00;4.50;;;15.50;73.90;;;;;;5046958;28;20030;-67
2021/05/13 09:06:00;;;;;;;5.35;4.85;;;15.50;74.10;;;;;;5044570;28;20077;-66
2021/05/13 09:08:26;;;;;;;5.07;4.68;;;15.70;74.30;;;;;;5043282;28;20176;-65
2021/05/13 09:10:51;;;;;;;5.18;4.30;;;15.80;74.00;;;;;;5038092;28;20354;-65
2021/05/13 09:13:31;;;;;;;4.85;4.13;;;15.90;73.90;;;;;;5040517;28;20068;-65
2021/05/13 09:16:01;;;;;;;4.30;3.90;;;16.00;73.10;;;;;;5040809;28;20033;-66
2021/05/13 09:18:35;;;;;;;5.30;4.70;;;16.10;73.20;;;;;;5038759;28;20136;-66
2021/05/13 09:21:10;;;;;;;5.10;3.53;;;16.20;72.20;;;;;;5037359;28;20041;-66
2021/05/13 09:23:40;;;;;;;2.95;2.67;;;16.30;71.00;;;;;;5039590;28;20033;-65
2021/05/13 09:26:13;;;;;;;4.75;4.30;;;16.40;70.20;;;;;;5036044;28;20538;-66
2021/05/13 09:28:43;;;;;;;4.53;3.80;;;16.50;70.30;;;;;;5039966;28;20057;-65
2021/05/13 09:31:29;;;;;;;3.67;3.38;;;16.50;69.00;;;;;;5034969;28;20255;-65
2021/05/13 09:34:04;;;;;;;4.10;3.70;;;16.60;69.50;;;;;;5038849;28;20361;-66
2021/05/13 09:36:30;;;;;;;4.55;4.07;;;16.60;69.20;;;;;;5040778;28;20079;-65
2021/05/13 09:38:58;;;;;;;5.07;4.30;;;16.70;69.90;;;;;;5035595;28;20047;-66
2021/05/13 09:41:41;;;;;;;3.58;3.28;;;16.80;69.70;;;;;;5036696;28;20164;-66
2021/05/13 09:44:37;;;;;;;3.70;3.40;;;16.90;67.50;;;;;;5039694;28;20125;-66
2021/05/13 09:47:20;;;;;;;4.07;3.55;;;17.00;66.90;;;;;;5038116;28;20443;-66
2021/05/13 09:50:05;;;;;;;5.78;5.28;;;17.00;66.20;;;;;;5040013;28;20124;-66
2021/05/13 09:52:49;;;;;;;5.30;4.60;;;17.10;64.00;;;;;;5037492;28;20446;-65
2021/05/13 09:55:27;;;;;;;3.30;3.00;;;17.20;66.20;;;;;;5039163;28;20542;-65
2021/05/13 09:57:58;;;;;;;2.55;2.05;;;17.30;65.60;;;;;;5035896;28;20033;-65
2021/05/13 10:00:46;;;;;;;4.22;2.67;;;17.30;65.60;;;;;;5036815;28;20026;-65
2021/05/13 10:03:23;;;;;;;3.28;2.78;;;17.40;64.60;;;;;;5037286;28;20057;-65
2021/05/13 10:05:54;;;;;;;2.47;2.28;;;17.50;65.00;;;;;;5039094;28;20041;-65
2021/05/13 10:08:20;;;;;;;3.35;2.50;;;17.50;65.20;;;;;;5038606;28;20040;-65
2021/05/13 10:10:52;;;;;;;2.45;2.00;;;17.60;66.00;;;;;;5033321;28;20095;-65
2021/05/13 10:13:19;;;;;;;1.90;1.80;;;17.70;64.10;;;;;;5034694;28;20458;-65
2021/05/13 10:15:46;;;;;;;2.70;2.45;;;17.70;64.10;;;;;;5037644;28;20068;-66
2021/05/13 10:18:24;;;;;;;2.50;2.30;;;17.80;64.10;;;;;;5036437;28;20048;-66
2021/05/13 10:21:04;;;;;;;2.50;2.30;;;17.90;62.60;;;;;;5036595;28;20120;-65
2021/05/13 10:23:33;;;;;;;1.42;1.10;;;17.90;61.80;;;;;;5038335;28;20026;-66
2021/05/13 10:26:03;;;;;;;1.42;0.85;;;17.90;61.00;;;;;;5031607;28;20029;-66
2021/05/13 10:28:31;;;;;;;3.65;1.20;;;17.90;59.90;;;;;;5031509;28;20037;-65
2021/05/13 10:31:06;;;;;;;4.50;0.90;;;17.80;60.80;;;;;;5034522;28;20738;-66
2021/05/13 10:33:50;;;;;;;3.15;0.30;;;17.60;59.60;;;;;;5032923;28;20041;-65
2021/05/13 10:36:18;;;;;;;0.68;0.30;;;17.20;58.20;;;;;;5031736;28;20051;-65
2021/05/13 10:39:06;;;;;;;3.03;0.70;;;16.70;59.60;;;;;;5037492;28;20122;-65
2021/05/13 10:41:36;;;;;;;0.80;0.60;;;16.30;60.30;;;;;;5036002;28;20112;-65
2021/05/13 10:44:12;;;;;;;0.77;0.60;;;15.80;61.50;;;;;;5031770;28;20056;-64
2021/05/13 10:46:51;;;;;;;2.30;0.60;;;15.40;63.40;;;;;;5035030;28;20021;-65
2021/05/13 10:49:25;;;;;;;1.88;0.85;;;15.00;64.30;;;;;;5035308;28;20035;-65
2021/05/13 10:51:55;;;;;;;0.93;0.75;;;14.70;65.90;;;;;;5035840;28;20041;-65
2021/05/13 10:54:32;;;;;;;1.35;0.55;;;14.40;67.30;;;;;;5036752;28;20037;-65
2021/05/13 10:57:20;;;;;;;0.63;0.30;;;14.10;69.30;;;;;;5032214;28;20887;-64
2021/05/13 11:00:12;;;;;;;0.30;0.30;;;13.90;69.00;;;;;;5032036;28;20505;-65
2021/05/13 11:02:48;;;;;;;0.28;0.28;;;13.80;70.00;;;;;;5034492;28;20037;-65
2021/05/13 11:05:44;;;;;;;0.63;0.32;;;13.60;69.70;;;;;;5035886;28;20025;-65
2021/05/13 11:08:18;;;;;;;0.80;0.32;;;13.60;71.30;;;;;;5030961;28;20044;-65
2021/05/13 11:10:56;;;;;;;2.28;0.25;;;13.60;71.40;;;;;;5032601;28;20080;-64
2021/05/13 11:13:22;;;;;;;1.92;0.28;;;13.60;71.90;;;;;;5035472;28;20040;-65
2021/05/13 11:15:55;;;;;;;0.35;0.20;;;13.60;71.60;;;;;;5034923;28;20036;-65
2021/05/13 11:18:34;;;;;;;0.60;0.30;;;13.70;71.70;;;;;;5046080;28;20033;-66
2021/05/13 11:21:05;;;;;;;0.77;0.45;;;13.70;71.90;;;;;;5040860;28;20037;-65
2021/05/13 11:23:34;;;;;;;0.63;0.40;;;13.80;71.60;;;;;;5036069;28;20034;-65
2021/05/13 11:26:07;;;;;;;1.20;0.70;;;13.90;71.50;;;;;;5037057;28;20040;-65
2021/05/13 11:28:47;;;;;;;4.00;1.45;;;13.90;72.30;;;;;;5038479;28;20048;-64
2021/05/13 11:31:27;;;;;;;0.95;0.60;;;13.90;72.60;;;;;;5032504;28;20756;-65
2021/05/13 11:34:04;;;;;;;1.05;0.68;;;13.90;72.10;;;;;;5037060;28;20030;-65
2021/05/13 11:36:40;;;;;;;0.40;0.40;;;14.00;72.40;;;;;;5034600;28;20449;-64
2021/05/13 11:39:16;;;;;;;0.50;0.22;;;14.00;72.30;;;;;;5037919;28;20485;-65
2021/05/13 11:41:49;;;;;;;1.05;0.30;;;14.00;72.30;;;;;;5038772;28;20033;-64
2021/05/13 11:44:22;;;;;;;0.30;0.20;;;14.00;72.20;;;;;;5037576;28;20459;-65
2021/05/13 11:46:53;;;;;;;0.82;0.40;;;14.00;72.70;;;;;;5037700;28;20029;-65
2021/05/13 11:49:21;;;;;;;0.52;0.30;;;14.00;73.40;;;;;;5037114;28;20141;-65
2021/05/13 11:51:51;;;;;;;0.73;0.40;;;14.00;73.60;;;;;;5036705;28;20052;-66
2021/05/13 11:54:19;;;;;;;0.52;0.40;;;14.10;73.70;;;;;;5033198;28;20031;-66
2021/05/13 11:56:44;;;;;;;0.70;0.20;;;14.10;73.90;;;;;;5045647;28;20055;-65
2021/05/13 11:59:13;;;;;;;0.25;0.20;;;14.30;73.80;;;;;;5039376;28;20037;-65
2021/05/13 12:01:49;;;;;;;0.25;0.20;;;14.30;73.50;;;;;;5033298;28;20037;-65
2021/05/13 12:04:24;;;;;;;0.68;0.40;;;14.40;74.10;;;;;;5037085;28;20041;-67
2021/05/13 12:07:01;;;;;;;1.00;0.47;;;14.50;73.70;;;;;;5038139;28;20029;-66
2021/05/13 12:09:31;;;;;;;0.82;0.30;;;14.60;73.60;;;;;;5038993;28;20029;-67
2021/05/13 12:11:59;;;;;;;0.30;0.30;;;14.70;73.00;;;;;;5032024;28;20497;-66
2021/05/13 12:14:27;;;;;;;0.55;0.40;;;14.90;72.70;;;;;;5037734;28;20045;-65
2021/05/13 12:17:00;;;;;;;0.35;0.32;;;14.90;71.50;;;;;;5036210;28;20036;-66
2021/05/13 12:19:32;;;;;;;0.50;0.32;;;15.00;71.40;;;;;;5034085;28;20044;-65
2021/05/13 12:22:08;;;;;;;0.70;0.40;;;15.10;72.10;;;;;;5036093;28;20029;-67
2021/05/13 12:24:41;;;;;;;0.68;0.40;;;15.20;71.40;;;;;;5038021;28;20408;-65
2021/05/13 12:27:09;;;;;;;0.40;0.30;;;15.30;71.40;;;;;;5039038;28;20440;-65
2021/05/13 12:29:40;;;;;;;0.55;0.20;;;15.30;71.10;;;;;;5039802;28;20034;-65
2021/05/13 12:32:06;;;;;;;0.38;0.30;;;15.40;70.70;;;;;;5030842;28;20079;-66
2021/05/13 12:34:42;;;;;;;0.90;0.30;;;15.50;68.80;;;;;;5035981;28;20100;-65
2021/05/13 12:37:19;;;;;;;1.60;0.40;;;15.60;67.80;;;;;;5036965;28;20690;-66
2021/05/13 12:39:47;;;;;;;0.82;0.20;;;15.60;67.60;;;;;;5039515;28;20064;-66
2021/05/13 12:42:31;;;;;;;1.05;0.55;;;15.70;67.70;;;;;;5035159;28;20059;-66
2021/05/13 12:45:19;;;;;;;0.98;0.47;;;15.80;66.20;;;;;;5037263;28;20124;-66
2021/05/13 12:47:54;;;;;;;0.82;0.50;;;15.80;66.00;;;;;;5031342;28;20034;-65
2021/05/13 12:50:26;;;;;;;0.63;0.57;;;15.90;67.50;;;;;;5038132;28;20496;-66
2021/05/13 12:53:08;;;;;;;3.08;0.98;;;16.00;66.70;;;;;;5036080;28;20061;-65
2021/05/13 12:55:40;;;;;;;0.90;0.40;;;16.00;63.70;;;;;;5042231;28;20025;-66
2021/05/13 12:58:15;;;;;;;0.95;0.50;;;16.00;64.20;;;;;;5038367;28;20041;-65
2021/05/13 13:00:44;;;;;;;0.50;0.30;;;16.00;64.80;;;;;;5039181;28;20033;-66
2021/05/13 13:03:17;;;;;;;1.55;0.50;;;15.90;63.60;;;;;;5032349;28;20053;-66
2021/05/13 13:05:45;;;;;;;1.10;0.60;;;15.90;62.60;;;;;;5038321;28;20029;-67
2021/05/13 13:08:10;;;;;;;0.68;0.50;;;15.80;63.30;;;;;;5039641;28;20034;-65
2021/05/13 13:10:39;;;;;;;2.67;0.45;;;15.80;62.90;;;;;;5033325;28;20037;-65